Time;durP1;ratioP1;P1;durP2;ratioP2;P2;SDS_P1;SDS_P2;PMS_P1;PMS_P2;Temp;Humidity;BMP_temperature;BMP_pressure;BME280_temperature;BME280_humidity;BME280_pressure;Samples;Min_cycle;Max_cycle;Signal;HPM_P1;HPM_P2
2023/07/07 00:00:12;;;;;;;20.52;12.77;;;;;;;19.20;100.00;99561.75;5136561;28;20484;-54
2023/07/07 00:02:39;;;;;;;20.10;11.52;;;;;;;19.11;100.00;99559.44;5136888;27;20055;-55
2023/07/07 00:05:05;;;;;;;21.40;12.30;;;;;;;18.92;100.00;99563.59;5136508;28;20055;-55
2023/07/07 00:07:31;;;;;;;19.17;10.88;;;;;;;18.96;100.00;99558.00;5136900;28;20320;-60
2023/07/07 00:09:57;;;;;;;15.13;10.85;;;;;;;19.13;100.00;99568.16;5137331;27;20050;-58
2023/07/07 00:12:24;;;;;;;17.40;11.90;;;;;;;19.29;100.00;99592.59;5140479;28;20413;-55
2023/07/07 00:14:50;;;;;;;17.58;11.05;;;;;;;19.30;100.00;99607.31;5140032;28;20062;-59
2023/07/07 00:17:16;;;;;;;17.38;11.43;;;;;;;18.96;100.00;99616.34;5140140;28;20051;-57
2023/07/07 00:19:43;;;;;;;20.55;10.70;;;;;;;19.20;100.00;99618.09;5140081;28;20051;-55
2023/07/07 00:22:09;;;;;;;17.42;11.27;;;;;;;19.34;100.00;99624.72;5139912;28;20051;-58
2023/07/07 00:24:35;;;;;;;17.05;10.73;;;;;;;19.08;100.00;99632.50;5140173;28;20070;-61
2023/07/07 00:27:02;;;;;;;21.15;11.93;;;;;;;19.03;100.00;99602.41;5139837;28;20051;-56
2023/07/07 00:29:28;;;;;;;20.83;10.68;;;;;;;19.12;100.00;99601.91;5140162;28;20059;-57
2023/07/07 00:31:53;;;;;;;15.18;10.00;;;;;;;19.21;100.00;99618.88;5139849;28;20313;-59
2023/07/07 00:34:19;;;;;;;15.80;10.25;;;;;;;18.86;100.00;99628.34;5140054;28;20047;-59
2023/07/07 00:36:46;;;;;;;16.50;10.13;;;;;;;18.90;100.00;99616.00;5139569;28;20233;-61
2023/07/07 00:39:12;;;;;;;15.38;9.93;;;;;;;19.04;100.00;99629.75;5140092;28;20043;-59
2023/07/07 00:41:39;;;;;;;16.17;9.65;;;;;;;18.93;100.00;99617.97;5139400;28;20147;-62
2023/07/07 00:44:07;;;;;;;18.00;9.95;;;;;;;19.14;100.00;99622.53;5139778;28;20393;-59
2023/07/07 00:46:34;;;;;;;16.92;10.63;;;;;;;18.79;100.00;99621.66;5139823;28;20359;-55
2023/07/07 00:49:05;;;;;;;15.98;10.65;;;;;;;19.12;100.00;99615.81;5139589;28;20184;-60
2023/07/07 00:51:34;;;;;;;14.95;10.60;;;;;;;18.98;100.00;99616.72;5139583;28;20495;-54
2023/07/07 00:54:06;;;;;;;18.77;10.18;;;;;;;18.94;100.00;99613.19;5139450;28;20059;-61
2023/07/07 00:56:38;;;;;;;15.45;9.65;;;;;;;19.22;100.00;99601.00;5139760;28;20062;-60
2023/07/07 00:59:07;;;;;;;16.77;10.40;;;;;;;18.94;100.00;99610.41;5139309;28;20051;-55
2023/07/07 01:01:34;;;;;;;16.90;10.32;;;;;;;19.00;100.00;99600.44;5139660;28;20094;-55
2023/07/07 01:04:05;;;;;;;16.30;10.00;;;;;;;18.89;100.00;99594.97;5139103;28;20047;-61
2023/07/07 01:06:36;;;;;;;17.88;10.73;;;;;;;19.02;100.00;99584.91;5139318;28;20074;-53
2023/07/07 01:09:06;;;;;;;18.92;10.75;;;;;;;19.10;100.00;99596.00;5139426;28;20312;-61
2023/07/07 01:11:32;;;;;;;14.68;9.98;;;;;;;19.10;100.00;99588.44;5139282;28;20065;-54
2023/07/07 01:14:01;;;;;;;16.23;10.30;;;;;;;19.05;100.00;99602.75;5139420;28;20138;-57
2023/07/07 01:16:35;;;;;;;20.50;10.85;;;;;;;19.02;100.00;99590.47;5138971;27;20496;-56
2023/07/07 01:19:21;;;;;;;21.33;10.85;;;;;;;19.05;100.00;99591.66;5139440;28;20383;-58
2023/07/07 01:22:01;;;;;;;15.45;10.30;;;;;;;18.94;100.00;99593.75;5137498;27;20047;-56
2023/07/07 01:24:38;;;;;;;17.20;10.82;;;;;;;18.73;100.00;99620.50;5139119;28;20058;-55
2023/07/07 01:27:20;;;;;;;15.80;9.88;;;;;;;18.73;100.00;99592.75;5139121;27;20130;-57
2023/07/07 01:30:03;;;;;;;16.95;10.27;;;;;;;18.61;100.00;99601.53;5138765;28;20053;-58
2023/07/07 01:32:30;;;;;;;14.90;10.38;;;;;;;18.70;100.00;99576.88;5138915;28;20137;-62
2023/07/07 01:34:59;;;;;;;19.45;11.35;;;;;;;18.57;100.00;99582.13;5138731;28;20512;-56
2023/07/07 01:37:25;;;;;;;15.07;9.90;;;;;;;18.80;100.00;99603.00;5139121;28;20062;-55
2023/07/07 01:39:53;;;;;;;15.95;9.63;;;;;;;18.59;100.00;99601.13;5138596;28;20051;-56
2023/07/07 01:42:24;;;;;;;18.17;10.20;;;;;;;18.61;100.00;99609.88;5138942;28;20057;-53
2023/07/07 01:44:57;;;;;;;17.70;9.65;;;;;;;18.70;100.00;99601.88;5138582;28;20137;-60
2023/07/07 01:47:30;;;;;;;18.00;14.45;;;;;;;18.77;100.00;99612.16;5138410;28;20362;-55
2023/07/07 01:50:01;;;;;;;39.00;10.02;;;;;;;18.48;100.00;99625.44;5138910;28;20043;-61
2023/07/07 01:52:32;;;;;;;18.65;14.63;;;;;;;18.57;100.00;99617.44;5138538;28;20174;-60
2023/07/07 01:55:01;;;;;;;12.63;9.30;;;;;;;18.58;100.00;99619.78;5138647;27;20142;-54
2023/07/07 01:57:28;;;;;;;13.90;9.70;;;;;;;18.81;100.00;99641.47;5138404;28;20419;-58
2023/07/07 01:59:54;;;;;;;14.65;10.20;;;;;;;18.67;100.00;99627.66;5138784;27;20069;-58
2023/07/07 02:02:21;;;;;;;16.45;10.00;;;;;;;18.74;100.00;99638.75;5138178;28;20138;-54
2023/07/07 02:04:47;;;;;;;13.75;8.73;;;;;;;18.75;100.00;99643.09;5138692;27;20419;-55
2023/07/07 02:07:14;;;;;;;14.35;9.40;;;;;;;18.75;100.00;99650.66;5138063;28;20051;-57
2023/07/07 02:09:40;;;;;;;20.92;10.00;;;;;;;18.52;100.00;99640.84;5138361;28;20047;-60
2023/07/07 02:12:07;;;;;;;16.00;9.98;;;;;;;18.61;100.00;99637.63;5138400;27;20084;-56
2023/07/07 02:14:33;;;;;;;16.15;9.60;;;;;;;18.26;100.00;99630.31;5138267;28;20395;-56
2023/07/07 02:16:59;;;;;;;15.88;9.57;;;;;;;18.46;100.00;99634.19;5138185;28;20046;-55
2023/07/07 02:19:25;;;;;;;13.60;8.95;;;;;;;18.32;100.00;99646.13;5138143;28;20093;-58
2023/07/07 02:21:51;;;;;;;12.10;8.32;;;;;;;18.65;100.00;99645.94;5138302;28;20097;-58
2023/07/07 02:24:18;;;;;;;13.98;8.68;;;;;;;18.64;100.00;99667.38;5137958;27;20059;-53
2023/07/07 02:26:44;;;;;;;12.13;9.02;;;;;;;18.55;100.00;99676.13;5138350;28;20142;-53
2023/07/07 02:29:10;;;;;;;12.48;8.52;;;;;;;18.67;100.00;99685.19;5137860;28;20047;-59
2023/07/07 02:31:36;;;;;;;12.70;8.77;;;;;;;18.76;100.00;99702.22;5138330;28;20411;-61
2023/07/07 02:34:01;;;;;;;14.07;8.57;;;;;;;18.71;100.00;99695.09;5137293;27;20202;-59
2023/07/07 02:36:27;;;;;;;15.48;10.00;;;;;;;18.85;100.00;99705.31;5137780;28;20061;-59
2023/07/07 02:38:53;;;;;;;14.38;9.00;;;;;;;18.88;100.00;99715.63;5137972;28;20093;-57
2023/07/07 02:41:20;;;;;;;14.32;8.55;;;;;;;18.65;100.00;99723.69;5137770;28;20078;-55
2023/07/07 02:43:46;;;;;;;17.73;9.48;;;;;;;18.79;100.00;99715.28;5137933;28;20054;-55
2023/07/07 02:46:12;;;;;;;17.08;12.98;;;;;;;18.78;100.00;99722.03;5137705;27;20191;-52
2023/07/07 02:48:38;;;;;;;16.27;9.15;;;;;;;18.83;100.00;99720.81;5137980;27;20385;-54
2023/07/07 02:51:06;;;;;;;14.90;9.30;;;;;;;18.85;100.00;99724.78;5137560;28;20485;-61
2023/07/07 02:53:34;;;;;;;13.88;8.70;;;;;;;18.62;100.00;99728.06;5137853;28;20053;-58
2023/07/07 02:56:00;;;;;;;14.57;8.20;;;;;;;18.67;100.00;99733.19;5137473;28;20137;-55
2023/07/07 02:58:27;;;;;;;12.13;8.85;;;;;;;18.66;100.00;99726.06;5137827;28;20463;-61
2023/07/07 03:00:54;;;;;;;11.27;7.53;;;;;;;18.63;100.00;99737.22;5137379;28;20302;-57
2023/07/07 03:03:21;;;;;;;14.65;8.60;;;;;;;18.56;100.00;99733.28;5137776;27;20444;-57
2023/07/07 03:05:47;;;;;;;15.95;8.75;;;;;;;18.49;100.00;99735.28;5137496;28;20047;-61
2023/07/07 03:08:13;;;;;;;11.77;7.72;;;;;;;18.51;100.00;99730.13;5137541;28;20305;-55
2023/07/07 03:10:41;;;;;;;12.50;7.57;;;;;;;18.64;100.00;99747.09;5137301;28;20460;-54
2023/07/07 03:13:07;;;;;;;13.95;7.57;;;;;;;18.67;100.00;99760.97;5137382;28;20051;-61
2023/07/07 03:15:39;;;;;;;12.88;8.55;;;;;;;18.76;100.00;99764.13;5137244;28;20051;-55
2023/07/07 03:18:06;;;;;;;12.48;7.90;;;;;;;18.68;100.00;99762.53;5137287;28;20055;-55
2023/07/07 03:20:32;;;;;;;13.40;7.70;;;;;;;18.95;100.00;99762.00;5137474;28;20054;-60
2023/07/07 03:22:58;;;;;;;12.02;8.07;;;;;;;18.91;100.00;99775.16;5137003;28;20051;-55
2023/07/07 03:25:25;;;;;;;20.00;8.75;;;;;;;18.91;100.00;99769.59;5137222;28;20138;-62
2023/07/07 03:27:51;;;;;;;14.65;8.02;;;;;;;18.74;100.00;99768.50;5136997;28;20191;-54
2023/07/07 03:30:17;;;;;;;16.92;8.40;;;;;;;18.69;100.00;99764.13;5137486;27;20076;-61
2023/07/07 03:32:43;;;;;;;12.55;8.30;;;;;;;18.79;100.00;99759.72;5136911;27;20059;-58
2023/07/07 03:35:09;;;;;;;11.45;7.35;;;;;;;18.82;100.00;99764.47;5136983;28;20137;-58
2023/07/07 03:37:36;;;;;;;16.60;7.72;;;;;;;18.65;100.00;99763.34;5137173;28;20062;-55
2023/07/07 03:40:02;;;;;;;11.38;8.02;;;;;;;18.34;100.00;99770.66;5137025;28;20142;-53
2023/07/07 03:42:29;;;;;;;9.60;6.68;;;;;;;18.14;100.00;99764.78;5136965;28;20047;-57
2023/07/07 03:44:55;;;;;;;8.70;6.57;;;;;;;18.47;100.00;99765.44;5137784;27;20142;-56
2023/07/07 03:47:21;;;;;;;10.68;6.90;;;;;;;18.47;100.00;99763.44;5140690;27;20043;-60
2023/07/07 03:49:49;;;;;;;15.52;10.63;;;;;;;18.59;100.00;99762.19;5140521;28;20133;-60
2023/07/07 03:52:15;;;;;;;15.32;7.18;;;;;;;18.47;100.00;99762.66;5140790;28;20119;-57
2023/07/07 03:54:41;;;;;;;12.70;6.70;;;;;;;18.58;100.00;99772.50;5140364;28;20421;-59
2023/07/07 03:57:08;;;;;;;10.63;9.40;;;;;;;18.47;100.00;99762.66;5140777;27;20047;-60
2023/07/07 03:59:34;;;;;;;10.75;6.28;;;;;;;18.55;100.00;99767.75;5140278;28;20047;-59
2023/07/07 04:01:59;;;;;;;14.57;6.90;;;;;;;18.46;100.00;99761.88;5140335;28;20054;-62
2023/07/07 04:04:25;;;;;;;12.35;6.03;;;;;;;18.52;100.00;99765.78;5140221;28;20051;-61
2023/07/07 04:06:53;;;;;;;12.25;6.28;;;;;;;18.18;100.00;99768.31;5140005;28;20107;-62
2023/07/07 04:09:19;;;;;;;15.05;6.78;;;;;;;18.63;100.00;99768.53;5140397;27;20047;-57
2023/07/07 04:11:45;;;;;;;13.55;6.93;;;;;;;18.51;100.00;99771.75;5140119;28;20093;-55
2023/07/07 04:14:11;;;;;;;11.70;9.32;;;;;;;18.54;100.00;99762.63;5140185;27;20317;-53
2023/07/07 04:16:36;;;;;;;9.05;5.80;;;;;;;18.41;100.00;99764.28;5140032;27;20082;-55
2023/07/07 04:19:02;;;;;;;13.13;6.00;;;;;;;18.65;100.00;99765.34;5140405;28;20114;-55
2023/07/07 04:21:30;;;;;;;8.23;5.20;;;;;;;18.63;100.00;99731.66;5139820;28;20047;-59
2023/07/07 04:23:58;;;;;;;7.60;5.50;;;;;;;18.49;100.00;99729.72;5140314;28;20062;-56
2023/07/07 04:26:25;;;;;;;9.13;7.32;;;;;;;18.42;100.00;99708.34;5139855;28;20058;-61
2023/07/07 04:28:52;;;;;;;10.52;5.03;;;;;;;18.44;100.00;99674.63;5140218;28;20047;-57
2023/07/07 04:31:20;;;;;;;9.90;4.82;;;;;;;18.43;100.00;99645.31;5139689;28;20373;-60
2023/07/07 04:33:47;;;;;;;13.50;5.35;;;;;;;18.67;100.00;99644.34;5139896;28;20048;-58
2023/07/07 04:36:13;;;;;;;12.20;5.05;;;;;;;18.56;100.00;99652.75;5139658;28;20141;-58
2023/07/07 04:38:39;;;;;;;9.27;5.65;;;;;;;18.72;100.00;99637.56;5139573;28;20055;-60
2023/07/07 04:41:07;;;;;;;8.95;5.25;;;;;;;18.54;100.00;99680.13;5139750;28;20065;-54
2023/07/07 04:43:34;;;;;;;11.50;7.72;;;;;;;18.93;100.00;99642.19;5139603;28;20070;-57
2023/07/07 04:46:01;;;;;;;8.23;5.30;;;;;;;18.84;100.00;99597.41;5139794;28;20047;-56
2023/07/07 04:48:27;;;;;;;6.03;4.93;;;;;;;18.97;100.00;99612.38;5139378;28;20425;-58
2023/07/07 04:50:56;;;;;;;9.50;5.03;;;;;;;18.84;100.00;99650.19;5139717;28;20054;-58
2023/07/07 04:53:22;;;;;;;8.80;5.32;;;;;;;18.60;100.00;99658.28;5139247;28;20057;-59
2023/07/07 04:55:48;;;;;;;8.80;5.32;;;;;;;18.88;100.00;99659.28;5139447;27;20134;-55
2023/07/07 04:58:15;;;;;;;12.13;5.03;;;;;;;19.19;100.00;99636.00;5139083;27;20074;-56
2023/07/07 05:00:41;;;;;;;7.05;5.22;;;;;;;19.11;100.00;99603.91;5139374;28;20358;-55
2023/07/07 05:03:07;;;;;;;9.45;5.03;;;;;;;19.33;100.00;99520.31;5139332;28;20089;-55
2023/07/07 05:05:35;;;;;;;6.47;4.82;;;;;;;19.42;100.00;99384.34;5139200;28;20134;-52
2023/07/07 05:08:01;;;;;;;5.03;4.47;;;;;;;19.66;100.00;99227.47;5139119;28;20412;-58
2023/07/07 05:10:27;;;;;;;6.00;4.25;;;;;;;19.88;100.00;99069.28;5139050;27;20071;-59
2023/07/07 05:12:53;;;;;;;10.55;4.35;;;;;;;19.98;100.00;98933.94;5139329;28;20401;-57
2023/07/07 05:15:20;;;;;;;5.63;3.63;;;;;;;20.28;100.00;98762.22;5138936;28;20095;-55
2023/07/07 05:17:46;;;;;;;6.95;4.75;;;;;;;20.44;100.00;98631.31;5138973;28;20146;-53
2023/07/07 05:20:12;;;;;;;6.50;3.95;;;;;;;20.30;100.00;98528.75;5138889;27;20142;-54
2023/07/07 05:22:37;;;;;;;9.13;3.60;;;;;;;20.42;100.00;98533.50;5139153;28;20070;-56
2023/07/07 05:25:04;;;;;;;5.90;3.58;;;;;;;20.68;100.00;98518.34;5138735;28;20104;-57
2023/07/07 05:27:30;;;;;;;7.25;3.80;;;;;;;20.48;100.00;98558.81;5138953;28;20133;-59
2023/07/07 05:29:57;;;;;;;7.00;3.85;;;;;;;20.81;100.00;98511.97;5138609;28;20409;-56
2023/07/07 05:32:24;;;;;;;5.80;3.97;;;;;;;21.10;100.00;98420.59;5138859;28;20054;-58
2023/07/07 05:34:49;;;;;;;5.53;3.38;;;;;;;21.36;100.00;98375.88;5138540;27;20076;-59
2023/07/07 05:37:15;;;;;;;7.18;3.63;;;;;;;21.73;100.00;98317.44;5138796;28;20055;-53
2023/07/07 05:39:41;;;;;;;7.40;4.00;;;;;;;22.27;100.00;98318.78;5138696;28;20168;-53
2023/07/07 05:42:07;;;;;;;7.20;3.67;;;;;;;22.17;100.00;98333.97;5137752;27;20095;-53
2023/07/07 05:44:33;;;;;;;4.07;3.03;;;;;;;21.99;100.00;98317.94;5138292;28;20104;-57
2023/07/07 05:46:59;;;;;;;6.38;4.00;;;;;;;21.57;100.00;98304.53;5138670;28;20062;-59
2023/07/07 05:49:26;;;;;;;11.75;3.70;;;;;;;21.40;100.00;98314.41;5138086;28;20317;-58
2023/07/07 05:51:51;;;;;;;6.65;3.60;;;;;;;21.57;100.00;98310.88;5138627;28;20077;-56
2023/07/07 05:54:17;;;;;;;7.15;2.63;;;;;;;21.40;100.00;98311.59;5137924;27;20413;-58
2023/07/07 05:56:43;;;;;;;11.82;3.38;;;;;;;21.26;100.00;98312.88;5138545;28;20054;-57
2023/07/07 05:59:09;;;;;;;5.40;3.47;;;;;;;21.41;100.00;98307.56;5137991;28;20138;-55
2023/07/07 06:01:37;;;;;;;3.22;2.92;;;;;;;21.31;100.00;98318.66;5138112;28;20078;-54
2023/07/07 06:04:04;;;;;;;5.10;3.83;;;;;;;21.63;100.00;98310.28;5138235;28;20043;-58
2023/07/07 06:06:30;;;;;;;6.97;3.30;;;;;;;21.76;100.00;98320.09;5137948;27;20156;-51
2023/07/07 06:08:56;;;;;;;5.53;3.45;;;;;;;21.84;100.00;98321.34;5137358;27;20043;-54
2023/07/07 06:11:22;;;;;;;10.85;3.42;;;;;;;22.50;100.00;98354.47;5137856;28;20083;-54
2023/07/07 06:13:48;;;;;;;4.13;3.42;;;;;;;23.49;100.00;98465.91;5138080;28;20094;-53
2023/07/07 06:16:14;;;;;;;6.93;3.72;;;;;;;24.29;100.00;98614.22;5137502;28;20188;-54
2023/07/07 06:18:40;;;;;;;6.05;3.20;;;;;;;24.38;100.00;98726.25;5137536;28;20412;-60
2023/07/07 06:21:07;;;;;;;6.30;2.58;;;;;;;25.02;100.00;98803.81;5137523;28;20047;-57
2023/07/07 06:23:34;;;;;;;5.07;2.22;;;;;;;26.14;100.00;98862.59;5137973;27;20357;-54
2023/07/07 06:26:00;;;;;;;8.23;4.07;;;;;;;26.71;100.00;98918.72;5137424;28;20047;-57
2023/07/07 06:28:26;;;;;;;8.90;2.70;;;;;;;26.60;100.00;98951.47;5137695;27;20629;-52
2023/07/07 06:30:52;;;;;;;6.55;2.90;;;;;;;26.61;100.00;98917.22;5137613;27;20055;-52
2023/07/07 06:33:20;;;;;;;5.93;2.22;;;;;;;26.77;100.00;98958.19;5137674;28;20362;-56
2023/07/07 06:35:46;;;;;;;6.03;3.05;;;;;;;27.46;100.00;98967.44;5137565;28;20070;-59
2023/07/07 06:38:12;;;;;;;6.47;3.08;;;;;;;26.97;100.00;98985.69;5137344;28;20103;-56
2023/07/07 06:40:38;;;;;;;10.77;3.50;;;;;;;27.14;100.00;98988.88;5137853;27;20053;-57
2023/07/07 06:43:04;;;;;;;7.38;3.30;;;;;;;27.19;100.00;98977.72;5137417;28;20050;-53
2023/07/07 06:45:34;;;;;;;7.45;3.40;;;;;;;26.90;100.00;98969.19;5137778;28;20404;-57
2023/07/07 06:48:00;;;;;;;6.35;3.60;;;;;;;26.02;100.00;98959.09;5137363;28;20043;-60
2023/07/07 06:50:28;;;;;;;6.65;3.15;;;;;;;27.24;100.00;98962.19;5137631;28;20345;-58
2023/07/07 06:52:54;;;;;;;7.63;3.65;;;;;;;27.09;100.00;98978.22;5137222;28;20399;-58
2023/07/07 06:55:20;;;;;;;5.72;3.42;;;;;;;26.94;100.00;98962.13;5137075;28;20134;-58
2023/07/07 06:57:47;;;;;;;5.15;2.90;;;;;;;27.15;100.00;98981.97;5137408;28;20047;-53
2023/07/07 07:00:14;;;;;;;4.68;3.50;;;;;;;26.96;100.00;98964.47;5137337;28;20053;-54
2023/07/07 07:02:41;;;;;;;7.70;3.30;;;;;;;27.14;100.00;98939.00;5137172;28;20191;-54
2023/07/07 07:05:07;;;;;;;5.63;3.35;;;;;;;27.15;100.00;98971.47;5137039;27;20130;-55
2023/07/07 07:07:33;;;;;;;6.43;3.15;;;;;;;27.40;100.00;98958.91;5137046;27;20416;-58
2023/07/07 07:10:02;;;;;;;10.13;3.70;;;;;;;27.90;100.00;98992.00;5137209;28;20137;-59
2023/07/07 07:12:28;;;;;;;5.38;3.10;;;;;;;27.74;100.00;99009.38;5137007;28;20054;-55
2023/07/07 07:14:55;;;;;;;7.20;2.67;;;;;;;28.30;100.00;99015.94;5137010;28;20043;-60
2023/07/07 07:17:21;;;;;;;6.40;3.38;;;;;;;28.26;100.00;99030.22;5136968;27;20043;-56
2023/07/07 07:19:47;;;;;;;11.10;2.97;;;;;;;27.86;100.00;99028.06;5139218;27;20047;-56
2023/07/07 07:22:13;;;;;;;5.13;2.67;;;;;;;27.98;100.00;99026.19;5140432;27;20328;-58
2023/07/07 07:24:39;;;;;;;6.38;2.88;;;;;;;28.52;100.00;99057.78;5140639;28;20051;-59
2023/07/07 07:27:06;;;;;;;9.23;2.97;;;;;;;28.23;100.00;99053.75;5140617;28;20051;-60
2023/07/07 07:29:33;;;;;;;6.35;2.55;;;;;;;28.46;100.00;99054.09;5140841;27;20302;-60
2023/07/07 07:31:59;;;;;;;5.57;2.80;;;;;;;28.20;100.00;99071.66;5140530;28;20145;-54
2023/07/07 07:34:27;;;;;;;7.80;2.90;;;;;;;28.51;100.00;99057.00;5140625;27;20055;-56
2023/07/07 07:36:54;;;;;;;6.28;2.78;;;;;;;28.60;100.00;99068.19;5140469;28;20321;-56
2023/07/07 07:39:21;;;;;;;4.32;2.58;;;;;;;28.05;100.00;99080.09;5140610;27;20144;-52
2023/07/07 07:41:48;;;;;;;4.53;2.58;;;;;;;27.92;100.00;99073.97;5140220;28;20093;-50
2023/07/07 07:44:15;;;;;;;8.35;2.65;;;;;;;28.40;100.00;99087.88;5140577;28;20051;-54
2023/07/07 07:46:42;;;;;;;3.80;2.22;;;;;;;28.06;100.00;99103.44;5140241;28;20055;-51
2023/07/07 07:49:09;;;;;;;4.90;2.28;;;;;;;28.28;95.97;99120.72;5140577;28;20061;-56
2023/07/07 07:51:37;;;;;;;3.13;2.25;;;;;;;28.11;93.45;99128.09;5140358;28;20059;-58
2023/07/07 07:54:03;;;;;;;3.20;2.05;;;;;;;28.75;88.13;99130.19;5140200;28;20047;-61
2023/07/07 07:56:29;;;;;;;6.75;2.45;;;;;;;29.15;81.45;99148.47;5140169;28;20392;-54
2023/07/07 07:58:55;;;;;;;6.32;1.90;;;;;;;29.30;80.10;99145.59;5140323;28;20141;-54
2023/07/07 08:01:21;;;;;;;3.15;2.20;;;;;;;29.61;76.87;99161.91;5139853;28;20058;-56
2023/07/07 08:03:47;;;;;;;2.92;1.88;;;;;;;29.29;67.14;99164.56;5139624;28;20146;-58
2023/07/07 08:06:13;;;;;;;3.75;1.88;;;;;;;29.08;68.12;99169.41;5139951;28;20082;-58
2023/07/07 08:08:39;;;;;;;10.68;2.70;;;;;;;28.71;69.29;99179.63;5139689;28;20374;-57
2023/07/07 08:11:05;;;;;;;6.55;2.22;;;;;;;28.56;71.43;99174.78;5139858;28;20055;-57
2023/07/07 08:13:31;;;;;;;4.80;1.88;;;;;;;28.81;70.78;99176.19;5139757;27;20215;-59
2023/07/07 08:15:57;;;;;;;6.43;2.13;;;;;;;28.93;67.93;99179.19;5140222;27;20131;-60
2023/07/07 08:18:23;;;;;;;2.35;1.67;;;;;;;28.70;67.39;99183.72;5139649;27;20416;-56
2023/07/07 08:20:49;;;;;;;4.32;1.88;;;;;;;29.81;64.81;99197.06;5139934;28;20134;-54
2023/07/07 08:23:15;;;;;;;4.43;1.88;;;;;;;28.95;63.51;99185.88;5139800;28;20057;-53
2023/07/07 08:25:42;;;;;;;4.05;1.80;;;;;;;28.95;64.81;99194.34;5139884;28;20141;-52
2023/07/07 08:28:08;;;;;;;3.28;1.67;;;;;;;29.39;62.67;99201.13;5139578;28;20047;-56
2023/07/07 08:30:33;;;;;;;3.42;1.85;;;;;;;29.04;61.47;99202.72;5139115;27;20062;-55
2023/07/07 08:32:59;;;;;;;2.60;1.60;;;;;;;29.65;60.56;99206.88;5139745;28;20055;-53
2023/07/07 08:35:26;;;;;;;9.00;2.30;;;;;;;29.68;61.05;99206.66;5139417;28;20104;-52
2023/07/07 08:37:52;;;;;;;2.33;1.73;;;;;;;28.87;61.12;99209.34;5139696;28;20067;-58
2023/07/07 08:40:22;;;;;;;3.58;1.70;;;;;;;29.56;60.40;99202.13;5139378;28;20135;-57
2023/07/07 08:42:48;;;;;;;4.47;1.60;;;;;;;30.20;60.71;99195.44;5139694;28;20059;-58
2023/07/07 08:45:17;;;;;;;6.28;1.73;;;;;;;29.58;57.91;99201.63;5139164;28;20058;-59
2023/07/07 08:47:55;;;;;;;5.45;1.92;;;;;;;30.05;58.48;99194.75;5139628;28;20047;-58
2023/07/07 08:50:30;;;;;;;2.63;1.65;;;;;;;29.27;58.83;99201.00;5139281;27;20051;-58
2023/07/07 08:53:12;;;;;;;9.90;1.92;;;;;;;29.25;58.78;99205.56;5139274;28;20080;-59
2023/07/07 08:55:48;;;;;;;9.68;1.60;;;;;;;28.40;62.06;99206.28;5139421;28;20396;-58
2023/07/07 08:58:21;;;;;;;2.42;1.50;;;;;;;28.02;63.15;99210.69;5139247;28;20048;-57
2023/07/07 09:00:53;;;;;;;2.15;1.55;;;;;;;28.72;61.90;99200.91;5139589;28;20062;-58
2023/07/07 09:03:33;;;;;;;5.23;2.07;;;;;;;28.63;60.89;99207.44;5138730;28;20062;-54
2023/07/07 09:06:15;;;;;;;4.35;1.75;;;;;;;28.25;61.26;99200.59;5139143;28;20059;-58
2023/07/07 09:08:49;;;;;;;2.38;1.70;;;;;;;27.62;64.41;99211.16;5139196;28;20053;-58
2023/07/07 09:11:24;;;;;;;2.92;1.80;;;;;;;27.89;65.42;99205.34;5138798;27;20094;-59
2023/07/07 09:13:54;;;;;;;3.00;1.63;;;;;;;28.55;64.00;99201.41;5139122;27;20043;-51
2023/07/07 09:16:24;;;;;;;4.63;1.60;;;;;;;27.67;65.65;99204.88;5138729;27;20445;-57
2023/07/07 09:18:56;;;;;;;4.70;1.65;;;;;;;29.01;64.84;99197.28;5139246;28;20094;-59
2023/07/07 09:21:31;;;;;;;1.92;1.63;;;;;;;29.88;62.38;99193.78;5138746;28;20431;-62
2023/07/07 09:24:04;;;;;;;2.88;1.98;;;;;;;29.70;62.53;99211.84;5138807;28;20107;-55
2023/07/07 09:26:33;;;;;;;3.50;1.80;;;;;;;29.93;60.31;99210.03;5138626;28;20055;-58
2023/07/07 09:29:03;;;;;;;3.97;2.13;;;;;;;29.71;60.70;99213.38;5138842;28;20055;-57
2023/07/07 09:31:37;;;;;;;2.67;1.90;;;;;;;29.65;59.75;99216.13;5138816;27;20058;-56
2023/07/07 09:34:03;;;;;;;;;;;;;;;29.41;60.80;99215.53;5139180;28;20100;-58
2023/07/07 09:36:34;;;;;;;4.10;2.15;;;;;;;29.24;59.29;99220.97;5138950;27;20177;-57
2023/07/07 09:39:12;;;;;;;2.65;1.60;;;;;;;29.44;59.53;99215.31;5138530;28;20134;-54
2023/07/07 09:41:47;;;;;;;2.67;1.85;;;;;;;29.01;60.96;99220.63;5138795;27;20493;-51
2023/07/07 09:44:30;;;;;;;2.05;1.80;;;;;;;29.08;59.83;99211.75;5137902;28;20061;-57
2023/07/07 09:47:10;;;;;;;4.72;2.10;;;;;;;28.94;62.25;99212.53;5138432;28;20075;-57
2023/07/07 09:49:42;;;;;;;7.07;2.10;;;;;;;28.02;64.71;99207.09;5138668;28;20112;-52
2023/07/07 09:52:26;;;;;;;5.03;1.95;;;;;;;27.69;64.38;99217.22;5138221;28;20465;-57
2023/07/07 09:54:52;;;;;;;;;;;;;;;27.74;66.69;99215.75;5139227;28;20061;-57
2023/07/07 09:57:25;;;;;;;3.08;2.10;;;;;;;27.68;63.94;99214.88;5138103;27;19934;-55
2023/07/07 09:59:55;;;;;;;5.40;2.13;;;;;;;27.09;68.81;99212.56;5138173;27;20146;-57
2023/07/07 10:02:23;;;;;;;3.47;1.63;;;;;;;26.40;68.87;99211.38;5137712;27;20760;-57
2023/07/07 10:04:54;;;;;;;3.05;1.90;;;;;;;26.96;70.40;99206.38;5137986;28;20047;-57
2023/07/07 10:07:21;;;;;;;3.63;2.35;;;;;;;27.18;73.47;99201.28;5138138;28;20049;-59
2023/07/07 10:09:47;;;;;;;5.03;2.20;;;;;;;27.42;68.38;99208.94;5138097;28;20074;-56
2023/07/07 10:12:16;;;;;;;4.30;2.30;;;;;;;27.88;67.90;99212.22;5138169;28;20109;-55
2023/07/07 10:14:44;;;;;;;2.95;2.00;;;;;;;28.19;63.55;99213.84;5137996;28;20158;-57
2023/07/07 10:17:20;;;;;;;3.13;2.10;;;;;;;28.61;62.29;99213.56;5138367;28;20146;-52
2023/07/07 10:19:52;;;;;;;4.63;1.90;;;;;;;28.76;64.44;99210.75;5137881;28;20047;-54
2023/07/07 10:22:20;;;;;;;3.47;2.47;;;;;;;28.51;63.59;99225.44;5138126;28;20062;-56
2023/07/07 10:24:46;;;;;;;2.65;2.10;;;;;;;28.19;64.95;99222.31;5137750;27;20073;-51
2023/07/07 10:27:15;;;;;;;6.43;2.38;;;;;;;28.18;65.02;99217.91;5137667;28;20142;-57
2023/07/07 10:29:43;;;;;;;5.32;2.85;;;;;;;28.44;64.96;99223.78;5138112;27;20051;-54
2023/07/07 10:32:12;;;;;;;5.60;2.20;;;;;;;28.26;65.07;99215.50;5137789;28;20330;-54
2023/07/07 10:34:43;;;;;;;3.58;2.63;;;;;;;28.41;66.62;99212.69;5138057;28;20090;-56
2023/07/07 10:37:18;;;;;;;11.15;2.63;;;;;;;28.40;66.64;99217.56;5137536;28;20436;-58
2023/07/07 10:39:49;;;;;;;4.75;2.10;;;;;;;28.53;67.79;99212.41;5138080;28;20313;-56
2023/07/07 10:42:15;;;;;;;6.82;2.55;;;;;;;28.25;69.35;99206.25;5137350;28;20158;-57
2023/07/07 10:44:42;;;;;;;3.00;2.20;;;;;;;28.04;70.00;99213.81;5137931;28;20057;-58
2023/07/07 10:47:09;;;;;;;3.88;2.13;;;;;;;27.17;70.83;99210.97;5137713;28;20147;-54
2023/07/07 10:49:35;;;;;;;7.53;2.47;;;;;;;27.51;72.85;99219.38;5137464;28;20055;-57
2023/07/07 10:52:30;;;;;;;7.25;2.60;;;;;;;27.80;71.68;99211.06;5137502;27;20062;-57
2023/07/07 10:55:04;;;;;;;4.50;2.47;;;;;;;27.45;69.83;99216.44;5130012;27;20180;-58
2023/07/07 10:57:41;;;;;;;5.57;2.40;;;;;;;27.60;69.07;99210.88;5137747;27;20138;-57
2023/07/07 11:00:24;;;;;;;3.13;1.80;;;;;;;27.32;67.87;99218.72;5137385;28;20393;-59
2023/07/07 11:03:16;;;;;;;3.25;2.08;;;;;;;27.56;67.08;99216.69;5137134;28;20057;-53
2023/07/07 11:05:45;;;;;;;12.57;2.42;;;;;;;27.44;68.67;99220.50;5137474;28;20069;-54
2023/07/07 11:08:29;;;;;;;3.30;1.80;;;;;;;27.44;65.10;99217.69;5137143;28;20069;-54
2023/07/07 11:11:11;;;;;;;2.45;1.50;;;;;;;27.70;63.86;99215.16;5137293;28;20451;-54
2023/07/07 11:13:56;;;;;;;4.63;1.90;;;;;;;27.53;65.09;99214.06;5137221;28;20466;-58
2023/07/07 11:16:32;;;;;;;3.58;1.90;;;;;;;27.54;62.89;99216.38;5137399;28;20047;-54
2023/07/07 11:19:14;;;;;;;2.90;1.90;;;;;;;27.71;62.50;99221.59;5137392;28;20051;-56
2023/07/07 11:21:49;;;;;;;3.50;1.30;;;;;;;28.01;61.76;99216.81;5137050;28;20164;-59
2023/07/07 11:24:26;;;;;;;2.78;1.63;;;;;;;27.76;60.95;99218.09;5137580;28;20401;-62
2023/07/07 11:27:08;;;;;;;5.57;2.08;;;;;;;27.40;60.44;99215.06;5136956;28;20047;-59
2023/07/07 11:29:44;;;;;;;4.78;1.70;;;;;;;26.96;60.57;99221.22;5137439;28;20047;-59